Cemal, Russia
Current Conditions -  °F | °C
As of 6:30 AM on Sunday 26 Oct 2014 (Local Time) from UNBB Reporting Station
Broken Clouds Broken Clouds  
Wind Chill: 13°   Ceiling: 1400
Heat Index: 21°   Visibility: 6mi
Dew Point: 16°   Wind: 7mph
Humidity: 80%   Direction: 240°WSW
Pressure: 30.03"   Gusts: NA
Location:  51.43°N, 86°E
Report Text: UNBB 252330Z 24003MPS 9999 BKN014 M06/M09 Q1017 NOSIG RMKQFE740/0987 24CLRD66
Loading
Personal Weather Stations






























Interactive Weather Map
Tropical Storm Tracking
New forecast layout! Learn more

10-Day Weather Forecast

Advertisements
Track Severe Weather on mobile